sensor_id;sensor_type;location;lat;lon;timestamp;P1;durP1;ratioP1;P2;durP2;ratioP2
22046;SDS011;11187;49.412;20.956;2024-01-30T00:00:00;83.22;;;41.70;;
22046;SDS011;11187;49.412;20.956;2024-01-30T00:02:47;80.60;;;39.13;;
22046;SDS011;11187;49.412;20.956;2024-01-30T00:05:20;81.22;;;39.35;;
22046;SDS011;11187;49.412;20.956;2024-01-30T00:08:10;80.03;;;37.63;;
22046;SDS011;11187;49.412;20.956;2024-01-30T00:10:43;77.53;;;36.85;;
22046;SDS011;11187;49.412;20.956;2024-01-30T00:13:30;72.35;;;38.40;;
22046;SDS011;11187;49.412;20.956;2024-01-30T00:16:03;79.78;;;37.92;;
22046;SDS011;11187;49.412;20.956;2024-01-30T00:18:53;77.65;;;38.92;;
22046;SDS011;11187;49.412;20.956;2024-01-30T00:21:27;70.88;;;38.25;;
22046;SDS011;11187;49.412;20.956;2024-01-30T00:24:14;87.72;;;39.88;;
22046;SDS011;11187;49.412;20.956;2024-01-30T00:26:47;84.55;;;38.10;;
22046;SDS011;11187;49.412;20.956;2024-01-30T00:29:34;72.82;;;36.60;;
22046;SDS011;11187;49.412;20.956;2024-01-30T00:32:07;78.15;;;38.35;;
22046;SDS011;11187;49.412;20.956;2024-01-30T00:34:54;69.68;;;36.42;;
22046;SDS011;11187;49.412;20.956;2024-01-30T00:37:48;83.30;;;40.58;;
22046;SDS011;11187;49.412;20.956;2024-01-30T00:40:21;72.80;;;37.78;;
22046;SDS011;11187;49.412;20.956;2024-01-30T00:43:15;82.22;;;39.00;;
22046;SDS011;11187;49.412;20.956;2024-01-30T00:46:11;80.20;;;38.58;;
22046;SDS011;11187;49.412;20.956;2024-01-30T00:48:45;76.35;;;37.92;;
22046;SDS011;11187;49.412;20.956;2024-01-30T00:51:32;69.38;;;37.47;;
22046;SDS011;11187;49.412;20.956;2024-01-30T00:54:05;65.15;;;36.75;;
22046;SDS011;11187;49.412;20.956;2024-01-30T00:56:52;80.07;;;38.58;;
22046;SDS011;11187;49.412;20.956;2024-01-30T00:59:25;64.25;;;35.58;;
22046;SDS011;11187;49.412;20.956;2024-01-30T01:02:12;72.20;;;35.50;;
22046;SDS011;11187;49.412;20.956;2024-01-30T01:04:46;70.35;;;35.70;;
22046;SDS011;11187;49.412;20.956;2024-01-30T01:07:40;75.68;;;34.30;;
22046;SDS011;11187;49.412;20.956;2024-01-30T01:10:36;79.88;;;36.90;;
22046;SDS011;11187;49.412;20.956;2024-01-30T01:13:09;69.90;;;36.95;;
22046;SDS011;11187;49.412;20.956;2024-01-30T01:15:56;66.95;;;34.35;;
22046;SDS011;11187;49.412;20.956;2024-01-30T01:18:29;82.18;;;37.92;;
22046;SDS011;11187;49.412;20.956;2024-01-30T01:21:23;76.50;;;37.95;;
22046;SDS011;11187;49.412;20.956;2024-01-30T01:23:56;80.45;;;37.65;;
22046;SDS011;11187;49.412;20.956;2024-01-30T01:26:43;66.35;;;37.47;;
22046;SDS011;11187;49.412;20.956;2024-01-30T01:29:16;76.85;;;37.63;;
22046;SDS011;11187;49.412;20.956;2024-01-30T01:32:08;78.00;;;38.05;;
22046;SDS011;11187;49.412;20.956;2024-01-30T01:34:41;87.22;;;39.67;;
22046;SDS011;11187;49.412;20.956;2024-01-30T01:37:28;78.35;;;37.70;;
22046;SDS011;11187;49.412;20.956;2024-01-30T01:40:01;68.63;;;37.08;;
22046;SDS011;11187;49.412;20.956;2024-01-30T01:42:55;66.88;;;35.90;;
22046;SDS011;11187;49.412;20.956;2024-01-30T01:45:49;62.10;;;33.13;;
22046;SDS011;11187;49.412;20.956;2024-01-30T01:48:22;58.47;;;30.95;;
22046;SDS011;11187;49.412;20.956;2024-01-30T01:51:09;62.42;;;32.47;;
22046;SDS011;11187;49.412;20.956;2024-01-30T01:53:42;54.47;;;31.33;;
22046;SDS011;11187;49.412;20.956;2024-01-30T01:56:30;54.30;;;31.17;;
22046;SDS011;11187;49.412;20.956;2024-01-30T01:59:05;58.50;;;32.15;;
22046;SDS011;11187;49.412;20.956;2024-01-30T02:01:54;49.90;;;32.13;;
22046;SDS011;11187;49.412;20.956;2024-01-30T02:04:29;66.07;;;33.38;;
22046;SDS011;11187;49.412;20.956;2024-01-30T02:07:23;59.25;;;32.78;;
22046;SDS011;11187;49.412;20.956;2024-01-30T02:09:57;52.75;;;32.35;;
22046;SDS011;11187;49.412;20.956;2024-01-30T02:12:52;62.58;;;35.00;;
22046;SDS011;11187;49.412;20.956;2024-01-30T02:15:26;69.60;;;34.53;;
22046;SDS011;11187;49.412;20.956;2024-01-30T02:18:13;57.78;;;34.00;;
22046;SDS011;11187;49.412;20.956;2024-01-30T02:21:16;51.90;;;32.55;;
22046;SDS011;11187;49.412;20.956;2024-01-30T02:23:57;47.53;;;31.58;;
22046;SDS011;11187;49.412;20.956;2024-01-30T02:26:39;49.20;;;29.73;;
22046;SDS011;11187;49.412;20.956;2024-01-30T02:29:26;51.72;;;30.20;;
22046;SDS011;11187;49.412;20.956;2024-01-30T02:32:06;47.42;;;29.90;;
22046;SDS011;11187;49.412;20.956;2024-01-30T02:34:46;48.75;;;28.95;;
22046;SDS011;11187;49.412;20.956;2024-01-30T02:37:26;45.30;;;29.42;;
22046;SDS011;11187;49.412;20.956;2024-01-30T02:40:09;45.72;;;28.88;;
22046;SDS011;11187;49.412;20.956;2024-01-30T02:42:49;43.25;;;28.17;;
22046;SDS011;11187;49.412;20.956;2024-01-30T02:45:29;42.33;;;28.90;;
22046;SDS011;11187;49.412;20.956;2024-01-30T02:48:09;37.75;;;27.17;;
22046;SDS011;11187;49.412;20.956;2024-01-30T02:50:49;40.47;;;28.13;;
22046;SDS011;11187;49.412;20.956;2024-01-30T02:53:29;39.95;;;27.40;;
22046;SDS011;11187;49.412;20.956;2024-01-30T02:56:09;35.03;;;25.83;;
22046;SDS011;11187;49.412;20.956;2024-01-30T02:58:56;36.60;;;27.33;;
22046;SDS011;11187;49.412;20.956;2024-01-30T03:01:50;39.90;;;26.33;;
22046;SDS011;11187;49.412;20.956;2024-01-30T03:04:44;34.45;;;25.63;;
22046;SDS011;11187;49.412;20.956;2024-01-30T03:07:17;41.47;;;26.67;;
22046;SDS011;11187;49.412;20.956;2024-01-30T03:10:04;36.25;;;25.98;;
22046;SDS011;11187;49.412;20.956;2024-01-30T03:12:38;30.52;;;24.58;;
22046;SDS011;11187;49.412;20.956;2024-01-30T03:15:25;31.92;;;25.30;;
22046;SDS011;11187;49.412;20.956;2024-01-30T03:17:58;34.42;;;26.17;;
22046;SDS011;11187;49.412;20.956;2024-01-30T03:20:45;33.47;;;24.30;;
22046;SDS011;11187;49.412;20.956;2024-01-30T03:23:20;28.85;;;25.83;;
22046;SDS011;11187;49.412;20.956;2024-01-30T03:26:14;30.60;;;25.63;;
22046;SDS011;11187;49.412;20.956;2024-01-30T03:28:48;30.17;;;25.67;;
22046;SDS011;11187;49.412;20.956;2024-01-30T03:31:38;29.65;;;26.45;;
22046;SDS011;11187;49.412;20.956;2024-01-30T03:34:20;31.15;;;27.58;;
22046;SDS011;11187;49.412;20.956;2024-01-30T03:37:14;29.52;;;24.55;;
22046;SDS011;11187;49.412;20.956;2024-01-30T03:40:08;31.90;;;26.35;;
22046;SDS011;11187;49.412;20.956;2024-01-30T03:42:41;31.52;;;25.58;;
22046;SDS011;11187;49.412;20.956;2024-01-30T03:45:28;34.95;;;26.42;;
22046;SDS011;11187;49.412;20.956;2024-01-30T03:48:01;38.80;;;27.13;;
22046;SDS011;11187;49.412;20.956;2024-01-30T03:50:48;31.67;;;26.27;;
22046;SDS011;11187;49.412;20.956;2024-01-30T03:53:21;38.03;;;26.48;;
22046;SDS011;11187;49.412;20.956;2024-01-30T03:56:08;33.00;;;25.73;;
22046;SDS011;11187;49.412;20.956;2024-01-30T03:58:42;33.97;;;24.65;;
22046;SDS011;11187;49.412;20.956;2024-01-30T04:01:36;29.15;;;23.50;;
22046;SDS011;11187;49.412;20.956;2024-01-30T04:04:30;32.63;;;26.77;;
22046;SDS011;11187;49.412;20.956;2024-01-30T04:07:03;31.60;;;25.58;;
22046;SDS011;11187;49.412;20.956;2024-01-30T04:10:00;27.70;;;24.55;;
22046;SDS011;11187;49.412;20.956;2024-01-30T04:12:54;29.63;;;24.10;;
22046;SDS011;11187;49.412;20.956;2024-01-30T04:15:27;29.98;;;24.52;;
22046;SDS011;11187;49.412;20.956;2024-01-30T04:18:14;32.47;;;24.42;;
22046;SDS011;11187;49.412;20.956;2024-01-30T04:20:54;25.55;;;22.70;;
22046;SDS011;11187;49.412;20.956;2024-01-30T04:23:34;27.30;;;24.15;;
22046;SDS011;11187;49.412;20.956;2024-01-30T04:26:14;30.65;;;23.65;;
22046;SDS011;11187;49.412;20.956;2024-01-30T04:28:54;28.77;;;23.17;;
22046;SDS011;11187;49.412;20.956;2024-01-30T04:31:36;32.85;;;24.30;;
22046;SDS011;11187;49.412;20.956;2024-01-30T04:34:16;24.73;;;22.20;;
22046;SDS011;11187;49.412;20.956;2024-01-30T04:36:56;29.88;;;23.25;;
22046;SDS011;11187;49.412;20.956;2024-01-30T04:39:43;30.40;;;24.48;;
22046;SDS011;11187;49.412;20.956;2024-01-30T04:42:23;28.15;;;24.98;;
22046;SDS011;11187;49.412;20.956;2024-01-30T04:45:10;29.17;;;23.38;;
22046;SDS011;11187;49.412;20.956;2024-01-30T04:47:50;30.85;;;25.10;;
22046;SDS011;11187;49.412;20.956;2024-01-30T04:50:37;27.35;;;24.48;;
22046;SDS011;11187;49.412;20.956;2024-01-30T04:53:17;29.77;;;26.38;;
22046;SDS011;11187;49.412;20.956;2024-01-30T04:56:04;29.45;;;24.80;;
22046;SDS011;11187;49.412;20.956;2024-01-30T04:58:45;30.67;;;25.27;;
22046;SDS011;11187;49.412;20.956;2024-01-30T05:01:25;28.77;;;22.80;;
22046;SDS011;11187;49.412;20.956;2024-01-30T05:04:08;31.77;;;24.65;;
22046;SDS011;11187;49.412;20.956;2024-01-30T05:06:55;31.67;;;24.48;;
22046;SDS011;11187;49.412;20.956;2024-01-30T05:09:35;27.58;;;24.63;;
22046;SDS011;11187;49.412;20.956;2024-01-30T05:12:15;32.30;;;24.98;;
22046;SDS011;11187;49.412;20.956;2024-01-30T05:14:55;30.38;;;23.77;;
22046;SDS011;11187;49.412;20.956;2024-01-30T05:17:42;31.02;;;24.92;;
22046;SDS011;11187;49.412;20.956;2024-01-30T05:20:22;27.10;;;24.20;;
22046;SDS011;11187;49.412;20.956;2024-01-30T05:23:09;30.17;;;23.73;;
22046;SDS011;11187;49.412;20.956;2024-01-30T05:25:42;27.50;;;21.27;;
22046;SDS011;11187;49.412;20.956;2024-01-30T05:28:29;28.95;;;23.45;;
22046;SDS011;11187;49.412;20.956;2024-01-30T05:31:02;29.83;;;23.88;;
22046;SDS011;11187;49.412;20.956;2024-01-30T05:33:49;27.95;;;21.83;;
22046;SDS011;11187;49.412;20.956;2024-01-30T05:36:23;25.33;;;19.50;;
22046;SDS011;11187;49.412;20.956;2024-01-30T05:39:16;26.85;;;23.15;;
22046;SDS011;11187;49.412;20.956;2024-01-30T05:42:10;30.55;;;20.52;;
22046;SDS011;11187;49.412;20.956;2024-01-30T05:45:04;28.65;;;22.27;;
22046;SDS011;11187;49.412;20.956;2024-01-30T05:47:58;30.77;;;25.20;;
22046;SDS011;11187;49.412;20.956;2024-01-30T05:50:31;30.80;;;24.30;;
22046;SDS011;11187;49.412;20.956;2024-01-30T05:53:18;30.20;;;22.85;;
22046;SDS011;11187;49.412;20.956;2024-01-30T05:55:51;30.83;;;24.08;;
22046;SDS011;11187;49.412;20.956;2024-01-30T05:58:38;33.78;;;22.10;;
22046;SDS011;11187;49.412;20.956;2024-01-30T06:01:11;30.17;;;21.52;;
22046;SDS011;11187;49.412;20.956;2024-01-30T06:03:58;32.40;;;24.02;;
22046;SDS011;11187;49.412;20.956;2024-01-30T06:06:32;32.58;;;22.92;;
22046;SDS011;11187;49.412;20.956;2024-01-30T06:09:25;33.45;;;20.90;;
22046;SDS011;11187;49.412;20.956;2024-01-30T06:12:19;37.47;;;24.20;;
22046;SDS011;11187;49.412;20.956;2024-01-30T06:15:13;42.08;;;22.63;;
22046;SDS011;11187;49.412;20.956;2024-01-30T06:18:07;42.25;;;24.10;;
22046;SDS011;11187;49.412;20.956;2024-01-30T06:20:40;42.15;;;28.20;;
22046;SDS011;11187;49.412;20.956;2024-01-30T06:23:27;38.67;;;25.58;;
22046;SDS011;11187;49.412;20.956;2024-01-30T06:26:00;42.58;;;23.92;;
22046;SDS011;11187;49.412;20.956;2024-01-30T06:28:47;29.83;;;22.45;;
22046;SDS011;11187;49.412;20.956;2024-01-30T06:31:20;35.50;;;22.38;;
22046;SDS011;11187;49.412;20.956;2024-01-30T06:34:07;31.98;;;21.73;;
22046;SDS011;11187;49.412;20.956;2024-01-30T06:36:55;32.22;;;21.08;;
22046;SDS011;11187;49.412;20.956;2024-01-30T06:39:49;34.50;;;21.13;;
22046;SDS011;11187;49.412;20.956;2024-01-30T06:42:22;31.50;;;21.58;;
22046;SDS011;11187;49.412;20.956;2024-01-30T06:45:09;26.58;;;20.70;;
22046;SDS011;11187;49.412;20.956;2024-01-30T06:47:43;32.20;;;20.60;;
22046;SDS011;11187;49.412;20.956;2024-01-30T06:50:36;27.90;;;21.63;;
22046;SDS011;11187;49.412;20.956;2024-01-30T06:53:09;37.08;;;23.63;;
22046;SDS011;11187;49.412;20.956;2024-01-30T06:55:56;27.13;;;20.00;;
22046;SDS011;11187;49.412;20.956;2024-01-30T06:58:29;29.35;;;23.30;;
22046;SDS011;11187;49.412;20.956;2024-01-30T07:01:27;31.20;;;24.10;;
22046;SDS011;11187;49.412;20.956;2024-01-30T07:04:22;33.90;;;21.33;;
22046;SDS011;11187;49.412;20.956;2024-01-30T07:07:18;25.92;;;21.08;;
22046;SDS011;11187;49.412;20.956;2024-01-30T07:10:12;29.92;;;21.98;;
22046;SDS011;11187;49.412;20.956;2024-01-30T07:13:06;33.13;;;23.85;;
22046;SDS011;11187;49.412;20.956;2024-01-30T07:15:39;29.50;;;21.88;;
22046;SDS011;11187;49.412;20.956;2024-01-30T07:18:33;30.15;;;20.58;;
22046;SDS011;11187;49.412;20.956;2024-01-30T07:21:07;27.77;;;20.73;;
22046;SDS011;11187;49.412;20.956;2024-01-30T07:23:56;31.15;;;21.77;;
22046;SDS011;11187;49.412;20.956;2024-01-30T07:26:36;29.63;;;22.38;;
22046;SDS011;11187;49.412;20.956;2024-01-30T07:29:19;31.63;;;23.17;;
22046;SDS011;11187;49.412;20.956;2024-01-30T07:31:59;42.38;;;26.85;;
22046;SDS011;11187;49.412;20.956;2024-01-30T07:34:46;37.40;;;25.42;;
22046;SDS011;11187;49.412;20.956;2024-01-30T07:37:47;31.90;;;24.55;;
22046;SDS011;11187;49.412;20.956;2024-01-30T07:40:24;32.05;;;24.60;;
22046;SDS011;11187;49.412;20.956;2024-01-30T07:43:17;37.42;;;23.20;;
22046;SDS011;11187;49.412;20.956;2024-01-30T07:45:51;29.65;;;21.20;;
22046;SDS011;11187;49.412;20.956;2024-01-30T07:48:37;34.58;;;23.10;;
22046;SDS011;11187;49.412;20.956;2024-01-30T07:51:10;40.58;;;28.38;;
22046;SDS011;11187;49.412;20.956;2024-01-30T07:54:04;36.25;;;24.08;;
22046;SDS011;11187;49.412;20.956;2024-01-30T07:56:58;36.60;;;27.52;;
22046;SDS011;11187;49.412;20.956;2024-01-30T07:59:53;35.45;;;25.88;;
22046;SDS011;11187;49.412;20.956;2024-01-30T08:02:47;28.75;;;22.88;;
22046;SDS011;11187;49.412;20.956;2024-01-30T08:05:24;30.15;;;25.23;;
22046;SDS011;11187;49.412;20.956;2024-01-30T08:08:10;31.10;;;22.63;;
22046;SDS011;11187;49.412;20.956;2024-01-30T08:10:43;33.70;;;21.75;;
22046;SDS011;11187;49.412;20.956;2024-01-30T08:13:30;28.23;;;23.67;;
22046;SDS011;11187;49.412;20.956;2024-01-30T08:16:04;29.13;;;23.17;;
22046;SDS011;11187;49.412;20.956;2024-01-30T08:18:54;29.13;;;21.60;;
22046;SDS011;11187;49.412;20.956;2024-01-30T08:21:31;28.95;;;22.20;;
22046;SDS011;11187;49.412;20.956;2024-01-30T08:24:20;33.13;;;23.50;;
22046;SDS011;11187;49.412;20.956;2024-01-30T08:26:53;35.30;;;27.40;;
22046;SDS011;11187;49.412;20.956;2024-01-30T08:29:42;36.53;;;24.63;;
22046;SDS011;11187;49.412;20.956;2024-01-30T08:32:15;36.15;;;25.02;;
22046;SDS011;11187;49.412;20.956;2024-01-30T08:35:02;26.67;;;20.58;;
22046;SDS011;11187;49.412;20.956;2024-01-30T08:37:56;27.38;;;21.40;;
22046;SDS011;11187;49.412;20.956;2024-01-30T08:40:50;30.40;;;22.35;;
22046;SDS011;11187;49.412;20.956;2024-01-30T08:43:24;29.50;;;22.40;;
22046;SDS011;11187;49.412;20.956;2024-01-30T08:46:18;33.40;;;25.40;;
22046;SDS011;11187;49.412;20.956;2024-01-30T08:49:13;33.33;;;27.08;;
22046;SDS011;11187;49.412;20.956;2024-01-30T08:51:47;31.38;;;24.88;;
22046;SDS011;11187;49.412;20.956;2024-01-30T08:54:40;30.58;;;22.98;;
22046;SDS011;11187;49.412;20.956;2024-01-30T08:57:14;33.03;;;25.65;;
22046;SDS011;11187;49.412;20.956;2024-01-30T09:00:00;30.77;;;22.80;;
22046;SDS011;11187;49.412;20.956;2024-01-30T09:02:37;31.17;;;24.17;;
22046;SDS011;11187;49.412;20.956;2024-01-30T09:05:24;28.60;;;21.95;;
22046;SDS011;11187;49.412;20.956;2024-01-30T09:07:57;34.58;;;22.77;;
22046;SDS011;11187;49.412;20.956;2024-01-30T09:10:44;28.38;;;23.40;;
22046;SDS011;11187;49.412;20.956;2024-01-30T09:13:18;27.97;;;22.40;;
22046;SDS011;11187;49.412;20.956;2024-01-30T09:16:04;29.75;;;26.15;;
22046;SDS011;11187;49.412;20.956;2024-01-30T09:18:38;28.23;;;22.75;;
22046;SDS011;11187;49.412;20.956;2024-01-30T09:21:24;29.63;;;24.92;;
22046;SDS011;11187;49.412;20.956;2024-01-30T09:24:01;27.45;;;21.55;;
22046;SDS011;11187;49.412;20.956;2024-01-30T09:26:56;28.83;;;22.90;;
22046;SDS011;11187;49.412;20.956;2024-01-30T09:29:29;32.60;;;25.17;;
22046;SDS011;11187;49.412;20.956;2024-01-30T09:32:16;33.22;;;24.58;;
22046;SDS011;11187;49.412;20.956;2024-01-30T09:34:51;33.72;;;23.05;;
22046;SDS011;11187;49.412;20.956;2024-01-30T09:37:44;31.15;;;21.90;;
22046;SDS011;11187;49.412;20.956;2024-01-30T09:40:18;31.45;;;25.30;;
22046;SDS011;11187;49.412;20.956;2024-01-30T09:43:13;30.95;;;26.40;;
22046;SDS011;11187;49.412;20.956;2024-01-30T09:46:13;32.83;;;23.80;;
22046;SDS011;11187;49.412;20.956;2024-01-30T09:49:09;34.17;;;25.92;;
22046;SDS011;11187;49.412;20.956;2024-01-30T09:52:05;31.38;;;24.90;;
22046;SDS011;11187;49.412;20.956;2024-01-30T09:55:00;36.10;;;26.50;;
22046;SDS011;11187;49.412;20.956;2024-01-30T09:57:54;34.47;;;25.33;;
22046;SDS011;11187;49.412;20.956;2024-01-30T10:00:48;39.58;;;28.67;;
22046;SDS011;11187;49.412;20.956;2024-01-30T10:03:25;32.00;;;25.20;;
22046;SDS011;11187;49.412;20.956;2024-01-30T10:06:18;33.28;;;24.70;;
22046;SDS011;11187;49.412;20.956;2024-01-30T10:08:54;56.70;;;35.22;;
22046;SDS011;11187;49.412;20.956;2024-01-30T10:11:40;42.75;;;28.50;;
22046;SDS011;11187;49.412;20.956;2024-01-30T10:14:13;44.22;;;29.80;;
22046;SDS011;11187;49.412;20.956;2024-01-30T10:17:08;38.47;;;28.13;;
22046;SDS011;11187;49.412;20.956;2024-01-30T10:20:12;37.42;;;28.00;;
22046;SDS011;11187;49.412;20.956;2024-01-30T10:22:47;32.10;;;24.17;;
22046;SDS011;11187;49.412;20.956;2024-01-30T10:25:34;36.72;;;25.40;;
22046;SDS011;11187;49.412;20.956;2024-01-30T10:28:15;34.45;;;26.40;;
22046;SDS011;11187;49.412;20.956;2024-01-30T10:31:02;36.58;;;27.02;;
22046;SDS011;11187;49.412;20.956;2024-01-30T10:33:39;32.30;;;24.05;;
22046;SDS011;11187;49.412;20.956;2024-01-30T10:36:43;34.65;;;24.77;;
22046;SDS011;11187;49.412;20.956;2024-01-30T10:39:29;45.53;;;29.00;;
22046;SDS011;11187;49.412;20.956;2024-01-30T10:42:19;30.00;;;25.33;;
22046;SDS011;11187;49.412;20.956;2024-01-30T10:47:50;28.98;;;23.05;;
22046;SDS011;11187;49.412;20.956;2024-01-30T10:50:36;43.88;;;29.75;;
22046;SDS011;11187;49.412;20.956;2024-01-30T10:53:29;33.00;;;23.05;;
22046;SDS011;11187;49.412;20.956;2024-01-30T10:56:10;33.15;;;24.38;;
22046;SDS011;11187;49.412;20.956;2024-01-30T10:59:02;31.42;;;24.90;;
22046;SDS011;11187;49.412;20.956;2024-01-30T11:01:44;31.90;;;25.05;;
22046;SDS011;11187;49.412;20.956;2024-01-30T11:04:25;27.88;;;22.73;;
22046;SDS011;11187;49.412;20.956;2024-01-30T11:07:15;33.80;;;25.90;;
22046;SDS011;11187;49.412;20.956;2024-01-30T11:10:03;29.90;;;22.77;;
22046;SDS011;11187;49.412;20.956;2024-01-30T11:12:45;29.40;;;23.63;;
22046;SDS011;11187;49.412;20.956;2024-01-30T11:15:25;40.85;;;27.75;;
22046;SDS011;11187;49.412;20.956;2024-01-30T11:18:06;35.03;;;25.50;;
22046;SDS011;11187;49.412;20.956;2024-01-30T11:20:46;30.70;;;23.75;;
22046;SDS011;11187;49.412;20.956;2024-01-30T11:23:26;30.92;;;22.17;;
22046;SDS011;11187;49.412;20.956;2024-01-30T11:26:10;33.97;;;23.45;;
22046;SDS011;11187;49.412;20.956;2024-01-30T11:28:52;35.03;;;24.30;;
22046;SDS011;11187;49.412;20.956;2024-01-30T11:31:32;33.80;;;24.02;;
22046;SDS011;11187;49.412;20.956;2024-01-30T11:34:14;31.45;;;23.27;;
22046;SDS011;11187;49.412;20.956;2024-01-30T11:37:06;29.25;;;23.17;;
22046;SDS011;11187;49.412;20.956;2024-01-30T11:39:52;34.05;;;24.52;;
22046;SDS011;11187;49.412;20.956;2024-01-30T11:42:33;28.50;;;24.10;;
22046;SDS011;11187;49.412;20.956;2024-01-30T11:45:14;28.77;;;23.77;;
22046;SDS011;11187;49.412;20.956;2024-01-30T11:47:54;32.97;;;24.23;;
22046;SDS011;11187;49.412;20.956;2024-01-30T11:50:35;32.00;;;23.50;;
22046;SDS011;11187;49.412;20.956;2024-01-30T11:53:31;31.85;;;23.70;;
22046;SDS011;11187;49.412;20.956;2024-01-30T11:56:07;32.35;;;23.50;;
22046;SDS011;11187;49.412;20.956;2024-01-30T11:59:01;29.60;;;21.65;;
22046;SDS011;11187;49.412;20.956;2024-01-30T12:01:55;28.20;;;22.90;;
22046;SDS011;11187;49.412;20.956;2024-01-30T12:04:28;29.08;;;23.80;;
22046;SDS011;11187;49.412;20.956;2024-01-30T12:07:15;29.48;;;23.77;;
22046;SDS011;11187;49.412;20.956;2024-01-30T12:09:55;29.88;;;23.23;;
22046;SDS011;11187;49.412;20.956;2024-01-30T12:12:35;32.72;;;22.35;;
22046;SDS011;11187;49.412;20.956;2024-01-30T12:15:16;29.42;;;22.05;;
22046;SDS011;11187;49.412;20.956;2024-01-30T12:18:05;34.80;;;24.15;;
22046;SDS011;11187;49.412;20.956;2024-01-30T12:20:45;28.40;;;23.52;;
22046;SDS011;11187;49.412;20.956;2024-01-30T12:23:43;29.33;;;22.75;;
22046;SDS011;11187;49.412;20.956;2024-01-30T12:26:17;28.38;;;22.60;;
22046;SDS011;11187;49.412;20.956;2024-01-30T12:29:07;34.63;;;23.33;;
22046;SDS011;11187;49.412;20.956;2024-01-30T12:31:41;29.00;;;21.38;;
22046;SDS011;11187;49.412;20.956;2024-01-30T12:34:40;26.30;;;20.17;;
22046;SDS011;11187;49.412;20.956;2024-01-30T12:37:40;26.98;;;21.45;;
22046;SDS011;11187;49.412;20.956;2024-01-30T12:40:34;26.80;;;21.33;;
22046;SDS011;11187;49.412;20.956;2024-01-30T12:43:29;30.90;;;21.65;;
22046;SDS011;11187;49.412;20.956;2024-01-30T12:46:29;27.02;;;20.95;;
22046;SDS011;11187;49.412;20.956;2024-01-30T12:49:03;29.73;;;23.50;;
22046;SDS011;11187;49.412;20.956;2024-01-30T12:51:49;29.65;;;22.00;;
22046;SDS011;11187;49.412;20.956;2024-01-30T12:54:23;25.88;;;21.33;;
22046;SDS011;11187;49.412;20.956;2024-01-30T12:57:17;25.83;;;21.48;;
22046;SDS011;11187;49.412;20.956;2024-01-30T13:00:11;28.45;;;22.58;;
22046;SDS011;11187;49.412;20.956;2024-01-30T13:03:05;28.10;;;23.08;;
22046;SDS011;11187;49.412;20.956;2024-01-30T13:06:02;27.25;;;20.50;;
22046;SDS011;11187;49.412;20.956;2024-01-30T13:08:36;27.73;;;22.65;;
22046;SDS011;11187;49.412;20.956;2024-01-30T13:11:29;25.25;;;22.08;;
22046;SDS011;11187;49.412;20.956;2024-01-30T13:14:03;27.08;;;21.90;;
22046;SDS011;11187;49.412;20.956;2024-01-30T13:16:49;27.70;;;22.38;;
22046;SDS011;11187;49.412;20.956;2024-01-30T13:19:23;29.30;;;22.30;;
22046;SDS011;11187;49.412;20.956;2024-01-30T13:22:16;29.92;;;22.23;;
22046;SDS011;11187;49.412;20.956;2024-01-30T13:25:10;26.90;;;23.80;;
22046;SDS011;11187;49.412;20.956;2024-01-30T13:28:04;26.42;;;21.83;;
22046;SDS011;11187;49.412;20.956;2024-01-30T13:30:38;26.35;;;23.48;;
22046;SDS011;11187;49.412;20.956;2024-01-30T13:33:31;25.42;;;22.67;;
22046;SDS011;11187;49.412;20.956;2024-01-30T13:36:25;24.48;;;21.00;;
22046;SDS011;11187;49.412;20.956;2024-01-30T13:39:19;23.38;;;18.45;;
22046;SDS011;11187;49.412;20.956;2024-01-30T13:41:59;26.00;;;22.95;;
22046;SDS011;11187;49.412;20.956;2024-01-30T13:44:52;29.55;;;22.15;;
22046;SDS011;11187;49.412;20.956;2024-01-30T13:47:26;25.85;;;21.08;;
22046;SDS011;11187;49.412;20.956;2024-01-30T13:50:20;27.73;;;21.13;;
22046;SDS011;11187;49.412;20.956;2024-01-30T13:53:14;30.67;;;22.83;;
22046;SDS011;11187;49.412;20.956;2024-01-30T13:55:48;22.98;;;20.52;;
22046;SDS011;11187;49.412;20.956;2024-01-30T13:58:34;26.77;;;20.48;;
22046;SDS011;11187;49.412;20.956;2024-01-30T14:01:09;26.30;;;20.25;;
22046;SDS011;11187;49.412;20.956;2024-01-30T14:03:56;26.17;;;23.23;;
22046;SDS011;11187;49.412;20.956;2024-01-30T14:06:34;25.67;;;22.98;;
22046;SDS011;11187;49.412;20.956;2024-01-30T14:09:35;28.48;;;22.00;;
22046;SDS011;11187;49.412;20.956;2024-01-30T14:12:09;27.02;;;23.88;;
22046;SDS011;11187;49.412;20.956;2024-01-30T14:14:55;27.00;;;23.13;;
22046;SDS011;11187;49.412;20.956;2024-01-30T14:17:41;26.77;;;22.00;;
22046;SDS011;11187;49.412;20.956;2024-01-30T14:20:38;32.35;;;25.38;;
22046;SDS011;11187;49.412;20.956;2024-01-30T14:23:32;30.83;;;26.55;;
22046;SDS011;11187;49.412;20.956;2024-01-30T14:26:26;30.58;;;25.30;;
22046;SDS011;11187;49.412;20.956;2024-01-30T14:29:20;38.17;;;27.50;;
22046;SDS011;11187;49.412;20.956;2024-01-30T14:32:14;44.47;;;29.67;;
22046;SDS011;11187;49.412;20.956;2024-01-30T14:35:08;44.60;;;28.58;;
22046;SDS011;11187;49.412;20.956;2024-01-30T14:37:55;45.85;;;26.35;;
22046;SDS011;11187;49.412;20.956;2024-01-30T14:40:54;46.17;;;27.02;;
22046;SDS011;11187;49.412;20.956;2024-01-30T14:43:48;56.90;;;31.75;;
22046;SDS011;11187;49.412;20.956;2024-01-30T14:46:22;38.28;;;26.90;;
22046;SDS011;11187;49.412;20.956;2024-01-30T14:49:08;35.75;;;24.80;;
22046;SDS011;11187;49.412;20.956;2024-01-30T14:51:43;34.28;;;24.20;;
22046;SDS011;11187;49.412;20.956;2024-01-30T14:54:29;42.65;;;27.80;;
22046;SDS011;11187;49.412;20.956;2024-01-30T14:57:03;47.00;;;29.15;;
22046;SDS011;11187;49.412;20.956;2024-01-30T14:59:50;54.67;;;31.58;;
22046;SDS011;11187;49.412;20.956;2024-01-30T15:02:24;54.67;;;33.20;;
22046;SDS011;11187;49.412;20.956;2024-01-30T15:05:17;60.72;;;34.72;;
22046;SDS011;11187;49.412;20.956;2024-01-30T15:08:11;60.47;;;33.17;;
22046;SDS011;11187;49.412;20.956;2024-01-30T15:10:45;60.40;;;32.03;;
22046;SDS011;11187;49.412;20.956;2024-01-30T15:13:38;50.33;;;31.35;;
22046;SDS011;11187;49.412;20.956;2024-01-30T15:16:12;67.05;;;38.30;;
22046;SDS011;11187;49.412;20.956;2024-01-30T15:19:05;62.95;;;37.80;;
22046;SDS011;11187;49.412;20.956;2024-01-30T15:21:59;60.78;;;35.13;;
22046;SDS011;11187;49.412;20.956;2024-01-30T15:24:33;62.55;;;35.85;;
22046;SDS011;11187;49.412;20.956;2024-01-30T15:27:19;71.90;;;38.45;;
22046;SDS011;11187;49.412;20.956;2024-01-30T15:29:56;75.28;;;38.97;;
22046;SDS011;11187;49.412;20.956;2024-01-30T15:33:07;122.40;;;57.58;;
22046;SDS011;11187;49.412;20.956;2024-01-30T15:35:54;117.20;;;55.83;;
22046;SDS011;11187;49.412;20.956;2024-01-30T15:39:06;98.93;;;50.00;;
22046;SDS011;11187;49.412;20.956;2024-01-30T15:42:05;125.65;;;59.72;;
22046;SDS011;11187;49.412;20.956;2024-01-30T15:44:52;124.75;;;63.25;;
22046;SDS011;11187;49.412;20.956;2024-01-30T15:47:28;107.45;;;56.50;;
22046;SDS011;11187;49.412;20.956;2024-01-30T15:50:41;69.28;;;43.15;;